sensor_id;sensor_type;location;lat;lon;timestamp;P1;durP1;ratioP1;P2;durP2;ratioP2
79747;SDS011;69232;47.488;19.268;2023-09-19T00:02:22;5.28;;;3.00;;
79747;SDS011;69232;47.488;19.268;2023-09-19T00:04:48;5.57;;;3.00;;
79747;SDS011;69232;47.488;19.268;2023-09-19T00:07:15;11.90;;;3.40;;
79747;SDS011;69232;47.488;19.268;2023-09-19T00:09:41;5.50;;;3.45;;
79747;SDS011;69232;47.488;19.268;2023-09-19T00:12:09;4.50;;;2.95;;
79747;SDS011;69232;47.488;19.268;2023-09-19T00:14:34;10.27;;;4.18;;
79747;SDS011;69232;47.488;19.268;2023-09-19T00:17:01;5.32;;;2.78;;
79747;SDS011;69232;47.488;19.268;2023-09-19T00:19:32;5.85;;;3.50;;
79747;SDS011;69232;47.488;19.268;2023-09-19T00:21:58;10.32;;;3.40;;
79747;SDS011;69232;47.488;19.268;2023-09-19T00:24:23;9.93;;;3.40;;
79747;SDS011;69232;47.488;19.268;2023-09-19T00:26:49;6.82;;;3.08;;
79747;SDS011;69232;47.488;19.268;2023-09-19T00:29:14;6.57;;;3.75;;
79747;SDS011;69232;47.488;19.268;2023-09-19T00:31:44;5.15;;;3.83;;
79747;SDS011;69232;47.488;19.268;2023-09-19T00:34:10;6.65;;;3.60;;
79747;SDS011;69232;47.488;19.268;2023-09-19T00:36:38;11.23;;;3.75;;
79747;SDS011;69232;47.488;19.268;2023-09-19T00:39:04;6.28;;;3.63;;
79747;SDS011;69232;47.488;19.268;2023-09-19T00:41:31;6.50;;;3.45;;
79747;SDS011;69232;47.488;19.268;2023-09-19T00:43:57;6.53;;;3.20;;
79747;SDS011;69232;47.488;19.268;2023-09-19T00:46:24;5.13;;;2.97;;
79747;SDS011;69232;47.488;19.268;2023-09-19T00:48:50;8.77;;;3.63;;
79747;SDS011;69232;47.488;19.268;2023-09-19T00:51:16;7.53;;;3.45;;
79747;SDS011;69232;47.488;19.268;2023-09-19T00:53:45;7.90;;;3.45;;
79747;SDS011;69232;47.488;19.268;2023-09-19T00:56:12;6.07;;;3.25;;
79747;SDS011;69232;47.488;19.268;2023-09-19T00:58:38;10.23;;;3.35;;
79747;SDS011;69232;47.488;19.268;2023-09-19T01:01:03;8.93;;;3.40;;
79747;SDS011;69232;47.488;19.268;2023-09-19T01:03:32;6.15;;;3.58;;
79747;SDS011;69232;47.488;19.268;2023-09-19T01:05:59;12.55;;;4.53;;
79747;SDS011;69232;47.488;19.268;2023-09-19T01:08:25;5.45;;;3.40;;
79747;SDS011;69232;47.488;19.268;2023-09-19T01:10:59;7.75;;;3.67;;
79747;SDS011;69232;47.488;19.268;2023-09-19T01:13:30;6.15;;;4.03;;
79747;SDS011;69232;47.488;19.268;2023-09-19T01:16:06;6.65;;;3.22;;
79747;SDS011;69232;47.488;19.268;2023-09-19T01:29:39;6.03;;;3.47;;
79747;SDS011;69232;47.488;19.268;2023-09-19T01:32:10;6.43;;;3.25;;
79747;SDS011;69232;47.488;19.268;2023-09-19T01:34:48;6.10;;;3.83;;
79747;SDS011;69232;47.488;19.268;2023-09-19T01:37:18;5.53;;;3.67;;
79747;SDS011;69232;47.488;19.268;2023-09-19T01:39:53;6.13;;;3.72;;
79747;SDS011;69232;47.488;19.268;2023-09-19T01:45:13;8.18;;;4.05;;
79747;SDS011;69232;47.488;19.268;2023-09-19T01:47:51;5.38;;;3.67;;
79747;SDS011;69232;47.488;19.268;2023-09-19T01:50:34;6.75;;;3.63;;
79747;SDS011;69232;47.488;19.268;2023-09-19T01:55:53;6.22;;;3.78;;
79747;SDS011;69232;47.488;19.268;2023-09-19T02:01:08;6.25;;;3.85;;
79747;SDS011;69232;47.488;19.268;2023-09-19T02:06:03;6.23;;;3.53;;
79747;SDS011;69232;47.488;19.268;2023-09-19T02:08:30;9.15;;;3.80;;
79747;SDS011;69232;47.488;19.268;2023-09-19T02:10:58;8.88;;;3.63;;
79747;SDS011;69232;47.488;19.268;2023-09-19T02:13:25;8.02;;;3.97;;
79747;SDS011;69232;47.488;19.268;2023-09-19T02:15:51;8.02;;;4.00;;
79747;SDS011;69232;47.488;19.268;2023-09-19T02:18:17;8.50;;;3.67;;
79747;SDS011;69232;47.488;19.268;2023-09-19T02:20:43;11.52;;;4.30;;
79747;SDS011;69232;47.488;19.268;2023-09-19T02:23:09;6.80;;;3.65;;
79747;SDS011;69232;47.488;19.268;2023-09-19T02:25:35;7.25;;;4.10;;
79747;SDS011;69232;47.488;19.268;2023-09-19T02:28:01;10.73;;;4.30;;
79747;SDS011;69232;47.488;19.268;2023-09-19T02:30:28;8.43;;;4.03;;
79747;SDS011;69232;47.488;19.268;2023-09-19T02:32:53;9.43;;;3.60;;
79747;SDS011;69232;47.488;19.268;2023-09-19T02:35:19;10.90;;;4.32;;
79747;SDS011;69232;47.488;19.268;2023-09-19T02:37:45;9.60;;;4.07;;
79747;SDS011;69232;47.488;19.268;2023-09-19T02:40:11;10.00;;;4.40;;
79747;SDS011;69232;47.488;19.268;2023-09-19T02:42:52;7.68;;;4.13;;
79747;SDS011;69232;47.488;19.268;2023-09-19T02:45:19;7.25;;;4.32;;
79747;SDS011;69232;47.488;19.268;2023-09-19T02:47:45;9.65;;;4.38;;
79747;SDS011;69232;47.488;19.268;2023-09-19T02:50:11;7.90;;;4.40;;
79747;SDS011;69232;47.488;19.268;2023-09-19T02:52:38;5.43;;;3.70;;
79747;SDS011;69232;47.488;19.268;2023-09-19T02:55:04;8.13;;;3.90;;
79747;SDS011;69232;47.488;19.268;2023-09-19T02:57:31;9.32;;;4.32;;
79747;SDS011;69232;47.488;19.268;2023-09-19T02:59:58;9.55;;;4.03;;
79747;SDS011;69232;47.488;19.268;2023-09-19T03:02:26;7.78;;;4.10;;
79747;SDS011;69232;47.488;19.268;2023-09-19T03:04:53;8.07;;;4.40;;
79747;SDS011;69232;47.488;19.268;2023-09-19T03:07:18;8.40;;;4.35;;
79747;SDS011;69232;47.488;19.268;2023-09-19T03:09:44;11.05;;;4.22;;
79747;SDS011;69232;47.488;19.268;2023-09-19T03:12:10;5.70;;;3.72;;
79747;SDS011;69232;47.488;19.268;2023-09-19T03:14:35;15.55;;;4.45;;
79747;SDS011;69232;47.488;19.268;2023-09-19T03:17:01;7.22;;;3.88;;
79747;SDS011;69232;47.488;19.268;2023-09-19T03:19:30;5.35;;;3.58;;
79747;SDS011;69232;47.488;19.268;2023-09-19T03:21:55;6.25;;;3.85;;
79747;SDS011;69232;47.488;19.268;2023-09-19T03:24:22;12.52;;;3.83;;
79747;SDS011;69232;47.488;19.268;2023-09-19T03:26:48;11.98;;;4.53;;
79747;SDS011;69232;47.488;19.268;2023-09-19T03:29:14;6.85;;;3.67;;
79747;SDS011;69232;47.488;19.268;2023-09-19T03:31:40;5.80;;;3.85;;
79747;SDS011;69232;47.488;19.268;2023-09-19T03:34:06;10.68;;;3.70;;
79747;SDS011;69232;47.488;19.268;2023-09-19T03:36:34;6.38;;;3.85;;
79747;SDS011;69232;47.488;19.268;2023-09-19T03:39:01;8.80;;;3.80;;
79747;SDS011;69232;47.488;19.268;2023-09-19T03:41:30;7.55;;;4.18;;
79747;SDS011;69232;47.488;19.268;2023-09-19T03:43:56;6.97;;;3.75;;
79747;SDS011;69232;47.488;19.268;2023-09-19T03:46:21;5.68;;;3.45;;
79747;SDS011;69232;47.488;19.268;2023-09-19T03:48:47;8.43;;;4.10;;
79747;SDS011;69232;47.488;19.268;2023-09-19T03:51:12;8.00;;;4.35;;
79747;SDS011;69232;47.488;19.268;2023-09-19T03:53:38;6.90;;;3.88;;
79747;SDS011;69232;47.488;19.268;2023-09-19T03:56:03;10.90;;;5.10;;
79747;SDS011;69232;47.488;19.268;2023-09-19T03:58:29;5.88;;;3.97;;
79747;SDS011;69232;47.488;19.268;2023-09-19T04:00:57;6.65;;;3.85;;
79747;SDS011;69232;47.488;19.268;2023-09-19T04:03:23;5.57;;;3.90;;
79747;SDS011;69232;47.488;19.268;2023-09-19T04:05:49;10.05;;;4.85;;
79747;SDS011;69232;47.488;19.268;2023-09-19T04:08:15;7.53;;;3.90;;
79747;SDS011;69232;47.488;19.268;2023-09-19T04:10:44;6.93;;;4.00;;
79747;SDS011;69232;47.488;19.268;2023-09-19T04:13:10;10.23;;;4.07;;
79747;SDS011;69232;47.488;19.268;2023-09-19T04:15:36;9.10;;;4.30;;
79747;SDS011;69232;47.488;19.268;2023-09-19T04:18:02;7.05;;;4.60;;
79747;SDS011;69232;47.488;19.268;2023-09-19T04:20:28;6.20;;;4.03;;
79747;SDS011;69232;47.488;19.268;2023-09-19T04:22:54;10.73;;;4.13;;
79747;SDS011;69232;47.488;19.268;2023-09-19T04:25:19;11.07;;;4.57;;
79747;SDS011;69232;47.488;19.268;2023-09-19T04:27:45;7.55;;;4.43;;
79747;SDS011;69232;47.488;19.268;2023-09-19T04:30:14;6.03;;;4.22;;
79747;SDS011;69232;47.488;19.268;2023-09-19T04:32:40;6.55;;;3.78;;
79747;SDS011;69232;47.488;19.268;2023-09-19T04:35:09;6.80;;;4.28;;
79747;SDS011;69232;47.488;19.268;2023-09-19T04:37:44;8.82;;;4.50;;
79747;SDS011;69232;47.488;19.268;2023-09-19T04:40:10;7.30;;;4.50;;
79747;SDS011;69232;47.488;19.268;2023-09-19T04:42:42;7.80;;;4.47;;
79747;SDS011;69232;47.488;19.268;2023-09-19T04:45:08;7.15;;;4.25;;
79747;SDS011;69232;47.488;19.268;2023-09-19T04:47:35;12.07;;;4.53;;
79747;SDS011;69232;47.488;19.268;2023-09-19T04:50:01;9.50;;;4.50;;
79747;SDS011;69232;47.488;19.268;2023-09-19T04:52:26;9.77;;;4.28;;
79747;SDS011;69232;47.488;19.268;2023-09-19T04:54:51;11.02;;;4.10;;
79747;SDS011;69232;47.488;19.268;2023-09-19T04:57:17;8.27;;;5.45;;
79747;SDS011;69232;47.488;19.268;2023-09-19T04:59:43;8.25;;;4.60;;
79747;SDS011;69232;47.488;19.268;2023-09-19T05:02:08;9.93;;;4.28;;
79747;SDS011;69232;47.488;19.268;2023-09-19T05:04:33;9.77;;;5.00;;
79747;SDS011;69232;47.488;19.268;2023-09-19T05:06:59;7.90;;;5.10;;
79747;SDS011;69232;47.488;19.268;2023-09-19T05:09:26;9.15;;;4.88;;
79747;SDS011;69232;47.488;19.268;2023-09-19T05:11:51;9.15;;;5.07;;
79747;SDS011;69232;47.488;19.268;2023-09-19T05:14:17;13.95;;;4.72;;
79747;SDS011;69232;47.488;19.268;2023-09-19T05:16:44;6.65;;;4.80;;
79747;SDS011;69232;47.488;19.268;2023-09-19T05:19:09;8.85;;;4.68;;
79747;SDS011;69232;47.488;19.268;2023-09-19T05:21:37;9.82;;;5.30;;
79747;SDS011;69232;47.488;19.268;2023-09-19T05:24:04;8.52;;;4.65;;
79747;SDS011;69232;47.488;19.268;2023-09-19T05:26:31;9.50;;;4.85;;
79747;SDS011;69232;47.488;19.268;2023-09-19T05:28:57;9.48;;;3.85;;
79747;SDS011;69232;47.488;19.268;2023-09-19T05:31:22;4.45;;;2.35;;
79747;SDS011;69232;47.488;19.268;2023-09-19T05:33:49;5.97;;;1.45;;
79747;SDS011;69232;47.488;19.268;2023-09-19T05:36:15;4.45;;;1.30;;
79747;SDS011;69232;47.488;19.268;2023-09-19T05:38:41;1.83;;;1.48;;
79747;SDS011;69232;47.488;19.268;2023-09-19T05:41:07;2.35;;;1.33;;
79747;SDS011;69232;47.488;19.268;2023-09-19T05:43:34;1.48;;;0.95;;
79747;SDS011;69232;47.488;19.268;2023-09-19T05:46:02;4.25;;;1.20;;
79747;SDS011;69232;47.488;19.268;2023-09-19T05:48:28;1.10;;;0.80;;
79747;SDS011;69232;47.488;19.268;2023-09-19T05:50:53;2.28;;;0.88;;
79747;SDS011;69232;47.488;19.268;2023-09-19T05:53:19;0.77;;;0.65;;
79747;SDS011;69232;47.488;19.268;2023-09-19T05:55:44;3.70;;;0.90;;
79747;SDS011;69232;47.488;19.268;2023-09-19T05:58:10;0.75;;;0.60;;
79747;SDS011;69232;47.488;19.268;2023-09-19T06:00:39;1.58;;;0.50;;
79747;SDS011;69232;47.488;19.268;2023-09-19T06:03:06;2.45;;;1.00;;
79747;SDS011;69232;47.488;19.268;2023-09-19T06:05:33;0.88;;;0.70;;
79747;SDS011;69232;47.488;19.268;2023-09-19T06:07:58;0.95;;;0.85;;
79747;SDS011;69232;47.488;19.268;2023-09-19T06:10:32;0.68;;;0.60;;
79747;SDS011;69232;47.488;19.268;2023-09-19T06:13:03;0.40;;;0.40;;
79747;SDS011;69232;47.488;19.268;2023-09-19T06:15:30;4.70;;;0.43;;
79747;SDS011;69232;47.488;19.268;2023-09-19T06:17:58;0.60;;;0.45;;
79747;SDS011;69232;47.488;19.268;2023-09-19T06:20:25;0.40;;;0.40;;
79747;SDS011;69232;47.488;19.268;2023-09-19T06:22:51;0.73;;;0.45;;
79747;SDS011;69232;47.488;19.268;2023-09-19T06:25:17;0.40;;;0.40;;
79747;SDS011;69232;47.488;19.268;2023-09-19T06:27:47;0.57;;;0.50;;
79747;SDS011;69232;47.488;19.268;2023-09-19T06:30:19;0.75;;;0.50;;
79747;SDS011;69232;47.488;19.268;2023-09-19T06:32:46;2.15;;;0.40;;
79747;SDS011;69232;47.488;19.268;2023-09-19T06:35:12;0.80;;;0.80;;
79747;SDS011;69232;47.488;19.268;2023-09-19T06:37:39;0.40;;;0.25;;
79747;SDS011;69232;47.488;19.268;2023-09-19T06:42:38;0.30;;;0.30;;
79747;SDS011;69232;47.488;19.268;2023-09-19T06:45:05;0.50;;;0.50;;
79747;SDS011;69232;47.488;19.268;2023-09-19T06:47:31;0.45;;;0.40;;
79747;SDS011;69232;47.488;19.268;2023-09-19T06:49:57;1.00;;;0.60;;
79747;SDS011;69232;47.488;19.268;2023-09-19T06:52:22;1.45;;;0.40;;
79747;SDS011;69232;47.488;19.268;2023-09-19T06:54:48;0.47;;;0.47;;
79747;SDS011;69232;47.488;19.268;2023-09-19T06:57:15;0.93;;;0.40;;
79747;SDS011;69232;47.488;19.268;2023-09-19T06:59:41;1.17;;;0.52;;
79747;SDS011;69232;47.488;19.268;2023-09-19T07:02:06;0.50;;;0.45;;
79747;SDS011;69232;47.488;19.268;2023-09-19T07:04:33;2.28;;;0.75;;
79747;SDS011;69232;47.488;19.268;2023-09-19T07:06:58;0.65;;;0.63;;
79747;SDS011;69232;47.488;19.268;2023-09-19T07:09:24;1.42;;;0.47;;
79747;SDS011;69232;47.488;19.268;2023-09-19T07:11:52;1.08;;;0.55;;
79747;SDS011;69232;47.488;19.268;2023-09-19T07:14:18;0.38;;;0.38;;
79747;SDS011;69232;47.488;19.268;2023-09-19T07:16:44;0.63;;;0.47;;
79747;SDS011;69232;47.488;19.268;2023-09-19T07:19:10;0.40;;;0.35;;
79747;SDS011;69232;47.488;19.268;2023-09-19T07:21:36;0.93;;;0.57;;
79747;SDS011;69232;47.488;19.268;2023-09-19T07:24:03;0.40;;;0.40;;
79747;SDS011;69232;47.488;19.268;2023-09-19T07:26:29;0.65;;;0.47;;
79747;SDS011;69232;47.488;19.268;2023-09-19T07:28:55;2.05;;;0.80;;
79747;SDS011;69232;47.488;19.268;2023-09-19T07:31:21;0.60;;;0.60;;
79747;SDS011;69232;47.488;19.268;2023-09-19T07:33:47;2.38;;;0.60;;
79747;SDS011;69232;47.488;19.268;2023-09-19T07:36:13;0.65;;;0.57;;
79747;SDS011;69232;47.488;19.268;2023-09-19T07:38:40;0.60;;;0.52;;
79747;SDS011;69232;47.488;19.268;2023-09-19T07:41:06;0.68;;;0.63;;
79747;SDS011;69232;47.488;19.268;2023-09-19T07:43:33;0.95;;;0.40;;
79747;SDS011;69232;47.488;19.268;2023-09-19T07:46:02;0.50;;;0.45;;
79747;SDS011;69232;47.488;19.268;2023-09-19T07:48:29;0.40;;;0.40;;
79747;SDS011;69232;47.488;19.268;2023-09-19T07:50:54;0.63;;;0.60;;
79747;SDS011;69232;47.488;19.268;2023-09-19T07:53:20;0.82;;;0.60;;
79747;SDS011;69232;47.488;19.268;2023-09-19T07:55:45;0.60;;;0.50;;
79747;SDS011;69232;47.488;19.268;2023-09-19T07:58:13;0.90;;;0.43;;
79747;SDS011;69232;47.488;19.268;2023-09-19T08:00:40;1.25;;;0.80;;
79747;SDS011;69232;47.488;19.268;2023-09-19T08:03:06;1.00;;;0.57;;
79747;SDS011;69232;47.488;19.268;2023-09-19T08:05:33;0.50;;;0.50;;
79747;SDS011;69232;47.488;19.268;2023-09-19T08:07:59;0.50;;;0.50;;
79747;SDS011;69232;47.488;19.268;2023-09-19T08:10:24;2.38;;;0.50;;
79747;SDS011;69232;47.488;19.268;2023-09-19T08:12:52;0.70;;;0.60;;
79747;SDS011;69232;47.488;19.268;2023-09-19T08:17:48;1.13;;;0.60;;
79747;SDS011;69232;47.488;19.268;2023-09-19T08:20:14;0.80;;;0.50;;
79747;SDS011;69232;47.488;19.268;2023-09-19T08:22:46;1.38;;;0.85;;
79747;SDS011;69232;47.488;19.268;2023-09-19T08:25:13;1.77;;;1.10;;
79747;SDS011;69232;47.488;19.268;2023-09-19T08:27:39;2.25;;;0.77;;
79747;SDS011;69232;47.488;19.268;2023-09-19T08:30:05;2.63;;;1.00;;
79747;SDS011;69232;47.488;19.268;2023-09-19T08:32:31;1.27;;;0.73;;
79747;SDS011;69232;47.488;19.268;2023-09-19T08:34:57;0.98;;;0.60;;
79747;SDS011;69232;47.488;19.268;2023-09-19T08:37:22;3.58;;;1.13;;
79747;SDS011;69232;47.488;19.268;2023-09-19T08:39:47;3.22;;;1.20;;
79747;SDS011;69232;47.488;19.268;2023-09-19T08:42:13;1.25;;;0.90;;
79747;SDS011;69232;47.488;19.268;2023-09-19T08:44:39;0.70;;;0.70;;
79747;SDS011;69232;47.488;19.268;2023-09-19T08:47:09;3.50;;;0.90;;
79747;SDS011;69232;47.488;19.268;2023-09-19T08:49:41;0.73;;;0.63;;
79747;SDS011;69232;47.488;19.268;2023-09-19T08:52:32;1.15;;;0.80;;
79747;SDS011;69232;47.488;19.268;2023-09-19T08:55:01;0.80;;;0.52;;
79747;SDS011;69232;47.488;19.268;2023-09-19T08:57:32;0.82;;;0.73;;
79747;SDS011;69232;47.488;19.268;2023-09-19T09:00:00;0.98;;;0.88;;
79747;SDS011;69232;47.488;19.268;2023-09-19T09:02:26;0.55;;;0.50;;
79747;SDS011;69232;47.488;19.268;2023-09-19T09:04:52;1.02;;;0.68;;
79747;SDS011;69232;47.488;19.268;2023-09-19T09:07:19;1.55;;;0.60;;
79747;SDS011;69232;47.488;19.268;2023-09-19T09:09:46;4.13;;;0.75;;
79747;SDS011;69232;47.488;19.268;2023-09-19T09:12:11;2.78;;;0.75;;
79747;SDS011;69232;47.488;19.268;2023-09-19T09:14:39;2.40;;;0.85;;
79747;SDS011;69232;47.488;19.268;2023-09-19T09:17:17;0.65;;;0.55;;
79747;SDS011;69232;47.488;19.268;2023-09-19T09:19:45;1.30;;;0.70;;
79747;SDS011;69232;47.488;19.268;2023-09-19T09:22:11;1.58;;;0.55;;
79747;SDS011;69232;47.488;19.268;2023-09-19T09:24:37;3.35;;;0.57;;
79747;SDS011;69232;47.488;19.268;2023-09-19T09:27:05;0.80;;;0.70;;
79747;SDS011;69232;47.488;19.268;2023-09-19T09:32:27;1.40;;;0.88;;
79747;SDS011;69232;47.488;19.268;2023-09-19T09:34:58;3.13;;;0.98;;
79747;SDS011;69232;47.488;19.268;2023-09-19T09:37:25;1.17;;;0.63;;
79747;SDS011;69232;47.488;19.268;2023-09-19T09:39:52;1.95;;;1.20;;
79747;SDS011;69232;47.488;19.268;2023-09-19T09:45:22;0.95;;;0.50;;
79747;SDS011;69232;47.488;19.268;2023-09-19T09:48:14;0.77;;;0.52;;
79747;SDS011;69232;47.488;19.268;2023-09-19T09:50:46;0.82;;;0.70;;
79747;SDS011;69232;47.488;19.268;2023-09-19T09:53:24;0.70;;;0.60;;
79747;SDS011;69232;47.488;19.268;2023-09-19T09:55:58;1.75;;;0.55;;
79747;SDS011;69232;47.488;19.268;2023-09-19T09:58:49;1.40;;;0.73;;
79747;SDS011;69232;47.488;19.268;2023-09-19T10:01:19;0.93;;;0.70;;
79747;SDS011;69232;47.488;19.268;2023-09-19T10:03:46;1.00;;;0.77;;
79747;SDS011;69232;47.488;19.268;2023-09-19T10:06:17;4.20;;;1.00;;
79747;SDS011;69232;47.488;19.268;2023-09-19T10:11:46;2.40;;;0.80;;
79747;SDS011;69232;47.488;19.268;2023-09-19T10:14:16;2.03;;;0.90;;
79747;SDS011;69232;47.488;19.268;2023-09-19T10:16:46;0.95;;;0.60;;
79747;SDS011;69232;47.488;19.268;2023-09-19T10:19:28;4.32;;;1.00;;
79747;SDS011;69232;47.488;19.268;2023-09-19T10:21:55;3.55;;;0.80;;
79747;SDS011;69232;47.488;19.268;2023-09-19T10:24:22;1.40;;;0.88;;
79747;SDS011;69232;47.488;19.268;2023-09-19T10:26:50;0.60;;;0.40;;
79747;SDS011;69232;47.488;19.268;2023-09-19T10:29:15;1.48;;;0.93;;
79747;SDS011;69232;47.488;19.268;2023-09-19T10:31:42;3.17;;;1.00;;
79747;SDS011;69232;47.488;19.268;2023-09-19T10:34:15;3.70;;;0.80;;
79747;SDS011;69232;47.488;19.268;2023-09-19T10:36:44;3.42;;;0.68;;
79747;SDS011;69232;47.488;19.268;2023-09-19T10:39:10;1.20;;;0.70;;
79747;SDS011;69232;47.488;19.268;2023-09-19T10:41:37;2.60;;;0.90;;
79747;SDS011;69232;47.488;19.268;2023-09-19T10:44:03;1.67;;;0.70;;
79747;SDS011;69232;47.488;19.268;2023-09-19T10:46:32;0.60;;;0.60;;
79747;SDS011;69232;47.488;19.268;2023-09-19T10:49:01;1.65;;;1.00;;
79747;SDS011;69232;47.488;19.268;2023-09-19T10:51:31;1.45;;;0.80;;
79747;SDS011;69232;47.488;19.268;2023-09-19T10:54:11;1.02;;;0.90;;
79747;SDS011;69232;47.488;19.268;2023-09-19T10:56:38;4.90;;;1.33;;
79747;SDS011;69232;47.488;19.268;2023-09-19T10:59:11;1.98;;;1.17;;
79747;SDS011;69232;47.488;19.268;2023-09-19T11:01:42;3.30;;;1.35;;
79747;SDS011;69232;47.488;19.268;2023-09-19T11:04:20;1.42;;;1.20;;
79747;SDS011;69232;47.488;19.268;2023-09-19T11:12:11;3.30;;;1.05;;
79747;SDS011;69232;47.488;19.268;2023-09-19T11:14:37;2.35;;;1.33;;
79747;SDS011;69232;47.488;19.268;2023-09-19T11:30:47;3.33;;;1.05;;
79747;SDS011;69232;47.488;19.268;2023-09-19T11:36:08;0.93;;;0.85;;
79747;SDS011;69232;47.488;19.268;2023-09-19T11:46:34;2.17;;;1.08;;
79747;SDS011;69232;47.488;19.268;2023-09-19T11:49:26;0.60;;;0.60;;
79747;SDS011;69232;47.488;19.268;2023-09-19T11:51:59;0.45;;;0.45;;
79747;SDS011;69232;47.488;19.268;2023-09-19T11:54:26;0.55;;;0.35;;
79747;SDS011;69232;47.488;19.268;2023-09-19T11:56:54;0.47;;;0.32;;
79747;SDS011;69232;47.488;19.268;2023-09-19T11:59:20;0.47;;;0.28;;
79747;SDS011;69232;47.488;19.268;2023-09-19T12:02:07;0.80;;;0.50;;
79747;SDS011;69232;47.488;19.268;2023-09-19T12:07:06;1.27;;;0.82;;
79747;SDS011;69232;47.488;19.268;2023-09-19T12:09:38;1.25;;;0.30;;
79747;SDS011;69232;47.488;19.268;2023-09-19T12:12:05;3.10;;;0.73;;
79747;SDS011;69232;47.488;19.268;2023-09-19T12:14:31;1.52;;;0.65;;
79747;SDS011;69232;47.488;19.268;2023-09-19T12:16:57;1.20;;;0.70;;
79747;SDS011;69232;47.488;19.268;2023-09-19T12:19:23;2.70;;;0.70;;
79747;SDS011;69232;47.488;19.268;2023-09-19T12:21:56;2.38;;;0.60;;
79747;SDS011;69232;47.488;19.268;2023-09-19T12:24:31;0.57;;;0.43;;
79747;SDS011;69232;47.488;19.268;2023-09-19T12:27:04;2.63;;;0.60;;
79747;SDS011;69232;47.488;19.268;2023-09-19T12:29:31;2.65;;;0.80;;
79747;SDS011;69232;47.488;19.268;2023-09-19T12:32:09;4.20;;;0.52;;
79747;SDS011;69232;47.488;19.268;2023-09-19T12:34:35;1.23;;;0.82;;
79747;SDS011;69232;47.488;19.268;2023-09-19T12:37:10;0.82;;;0.50;;
79747;SDS011;69232;47.488;19.268;2023-09-19T12:39:48;1.90;;;0.70;;
79747;SDS011;69232;47.488;19.268;2023-09-19T12:42:16;2.42;;;0.70;;
79747;SDS011;69232;47.488;19.268;2023-09-19T12:44:44;2.33;;;0.68;;
79747;SDS011;69232;47.488;19.268;2023-09-19T12:47:11;1.17;;;0.77;;
79747;SDS011;69232;47.488;19.268;2023-09-19T12:50:04;1.08;;;0.50;;
79747;SDS011;69232;47.488;19.268;2023-09-19T12:52:45;2.35;;;0.50;;
79747;SDS011;69232;47.488;19.268;2023-09-19T12:55:26;0.65;;;0.65;;
79747;SDS011;69232;47.488;19.268;2023-09-19T12:57:59;3.38;;;1.05;;
79747;SDS011;69232;47.488;19.268;2023-09-19T13:00:34;2.03;;;0.73;;
79747;SDS011;69232;47.488;19.268;2023-09-19T13:03:13;1.75;;;0.93;;
79747;SDS011;69232;47.488;19.268;2023-09-19T13:08:20;0.60;;;0.60;;
79747;SDS011;69232;47.488;19.268;2023-09-19T13:13:44;1.02;;;0.80;;
79747;SDS011;69232;47.488;19.268;2023-09-19T13:16:18;2.22;;;1.02;;
79747;SDS011;69232;47.488;19.268;2023-09-19T13:18:48;1.08;;;0.88;;
79747;SDS011;69232;47.488;19.268;2023-09-19T13:21:31;1.13;;;0.88;;
79747;SDS011;69232;47.488;19.268;2023-09-19T13:24:23;1.02;;;0.82;;
79747;SDS011;69232;47.488;19.268;2023-09-19T13:26:53;1.73;;;0.93;;
79747;SDS011;69232;47.488;19.268;2023-09-19T13:29:19;1.15;;;0.95;;
79747;SDS011;69232;47.488;19.268;2023-09-19T13:31:48;2.55;;;0.80;;
79747;SDS011;69232;47.488;19.268;2023-09-19T13:34:15;1.98;;;1.20;;
79747;SDS011;69232;47.488;19.268;2023-09-19T13:36:43;2.80;;;1.00;;
79747;SDS011;69232;47.488;19.268;2023-09-19T13:39:09;4.43;;;1.00;;
79747;SDS011;69232;47.488;19.268;2023-09-19T13:41:35;1.15;;;0.82;;
79747;SDS011;69232;47.488;19.268;2023-09-19T13:44:03;1.10;;;0.80;;
79747;SDS011;69232;47.488;19.268;2023-09-19T13:46:29;0.93;;;0.82;;
79747;SDS011;69232;47.488;19.268;2023-09-19T13:48:58;5.93;;;1.10;;
79747;SDS011;69232;47.488;19.268;2023-09-19T13:51:25;1.05;;;0.70;;
79747;SDS011;69232;47.488;19.268;2023-09-19T13:53:52;2.90;;;0.80;;
79747;SDS011;69232;47.488;19.268;2023-09-19T13:56:19;1.80;;;0.85;;
79747;SDS011;69232;47.488;19.268;2023-09-19T13:58:44;1.48;;;0.90;;
79747;SDS011;69232;47.488;19.268;2023-09-19T14:01:09;1.25;;;0.85;;
79747;SDS011;69232;47.488;19.268;2023-09-19T14:03:38;0.88;;;0.52;;
79747;SDS011;69232;47.488;19.268;2023-09-19T14:06:04;1.38;;;0.80;;
79747;SDS011;69232;47.488;19.268;2023-09-19T14:08:29;2.50;;;1.10;;
79747;SDS011;69232;47.488;19.268;2023-09-19T14:10:55;1.65;;;1.10;;
79747;SDS011;69232;47.488;19.268;2023-09-19T14:13:21;1.15;;;0.88;;
79747;SDS011;69232;47.488;19.268;2023-09-19T14:15:46;2.20;;;0.88;;
79747;SDS011;69232;47.488;19.268;2023-09-19T14:18:12;1.70;;;1.27;;
79747;SDS011;69232;47.488;19.268;2023-09-19T14:20:38;2.05;;;1.30;;
79747;SDS011;69232;47.488;19.268;2023-09-19T14:23:07;4.82;;;1.45;;
79747;SDS011;69232;47.488;19.268;2023-09-19T14:25:35;3.13;;;1.17;;
79747;SDS011;69232;47.488;19.268;2023-09-19T14:28:01;3.33;;;1.02;;
79747;SDS011;69232;47.488;19.268;2023-09-19T14:30:27;1.95;;;1.45;;
79747;SDS011;69232;47.488;19.268;2023-09-19T14:32:53;2.00;;;1.00;;
79747;SDS011;69232;47.488;19.268;2023-09-19T14:35:18;2.15;;;1.52;;
79747;SDS011;69232;47.488;19.268;2023-09-19T14:37:44;1.10;;;0.85;;
79747;SDS011;69232;47.488;19.268;2023-09-19T14:40:10;1.10;;;0.90;;
79747;SDS011;69232;47.488;19.268;2023-09-19T14:42:39;1.95;;;1.30;;
79747;SDS011;69232;47.488;19.268;2023-09-19T14:45:05;3.33;;;1.00;;
79747;SDS011;69232;47.488;19.268;2023-09-19T14:47:31;0.93;;;0.82;;
79747;SDS011;69232;47.488;19.268;2023-09-19T14:50:00;1.42;;;1.02;;
79747;SDS011;69232;47.488;19.268;2023-09-19T14:52:27;3.17;;;0.93;;
79747;SDS011;69232;47.488;19.268;2023-09-19T14:54:53;3.53;;;1.20;;
79747;SDS011;69232;47.488;19.268;2023-09-19T14:57:19;1.58;;;0.70;;
79747;SDS011;69232;47.488;19.268;2023-09-19T14:59:45;2.15;;;1.02;;
79747;SDS011;69232;47.488;19.268;2023-09-19T15:02:10;2.42;;;1.20;;
79747;SDS011;69232;47.488;19.268;2023-09-19T15:04:36;1.77;;;1.10;;
79747;SDS011;69232;47.488;19.268;2023-09-19T15:07:02;1.75;;;1.20;;
79747;SDS011;69232;47.488;19.268;2023-09-19T15:09:28;2.22;;;1.20;;
79747;SDS011;69232;47.488;19.268;2023-09-19T15:11:55;1.70;;;1.50;;
79747;SDS011;69232;47.488;19.268;2023-09-19T15:14:21;0.88;;;0.80;;
79747;SDS011;69232;47.488;19.268;2023-09-19T15:16:47;0.98;;;0.88;;
79747;SDS011;69232;47.488;19.268;2023-09-19T15:19:13;2.63;;;0.93;;
79747;SDS011;69232;47.488;19.268;2023-09-19T15:21:40;2.75;;;1.13;;
79747;SDS011;69232;47.488;19.268;2023-09-19T15:24:05;1.15;;;0.80;;
79747;SDS011;69232;47.488;19.268;2023-09-19T15:26:35;1.55;;;0.85;;
79747;SDS011;69232;47.488;19.268;2023-09-19T15:29:04;1.67;;;0.98;;
79747;SDS011;69232;47.488;19.268;2023-09-19T15:31:32;1.63;;;0.80;;
79747;SDS011;69232;47.488;19.268;2023-09-19T15:33:58;1.35;;;0.95;;
79747;SDS011;69232;47.488;19.268;2023-09-19T15:36:23;1.75;;;0.73;;
79747;SDS011;69232;47.488;19.268;2023-09-19T15:39:02;3.92;;;0.80;;
79747;SDS011;69232;47.488;19.268;2023-09-19T15:41:34;1.75;;;0.95;;
79747;SDS011;69232;47.488;19.268;2023-09-19T15:44:02;3.65;;;1.02;;
79747;SDS011;69232;47.488;19.268;2023-09-19T15:46:29;3.08;;;0.82;;
79747;SDS011;69232;47.488;19.268;2023-09-19T15:49:01;1.50;;;0.57;;
79747;SDS011;69232;47.488;19.268;2023-09-19T15:51:27;1.05;;;0.70;;
79747;SDS011;69232;47.488;19.268;2023-09-19T15:53:54;0.95;;;0.80;;